Time;durP1;ratioP1;P1;durP2;ratioP2;P2;SDS_P1;SDS_P2;PMS_P1;PMS_P2;Temp;Humidity;BMP_temperature;BMP_pressure;BME280_temperature;BME280_humidity;BME280_pressure;Samples;Min_cycle;Max_cycle;Signal;HPM_P1;HPM_P2
2023/04/29 00:01:50;;;;;;;18.40;15.70;;;;;;;6.58;53.97;97685.85;106895;1276;24322;-79
2023/04/29 00:04:18;;;;;;;19.20;17.10;;;;;;;6.50;54.40;97686.17;106941;1276;22668;-78
2023/04/29 00:06:47;;;;;;;23.20;20.90;;;;;;;6.46;54.32;97682.02;106897;1276;22676;-77
2023/04/29 00:09:15;;;;;;;26.60;24.20;;;;;;;6.48;53.97;97680.46;106905;1276;22625;-78
2023/04/29 00:11:43;;;;;;;21.80;19.40;;;;;;;6.52;54.15;97683.00;106884;1276;25418;-77
2023/04/29 00:14:11;;;;;;;21.70;18.70;;;;;;;6.52;54.51;97679.35;106867;1276;22563;-78
2023/04/29 00:16:39;;;;;;;18.80;16.80;;;;;;;6.52;54.22;97682.52;106889;1276;23943;-78
2023/04/29 00:19:07;;;;;;;22.40;17.10;;;;;;;6.58;54.31;97683.39;106866;1276;24480;-78
2023/04/29 00:21:35;;;;;;;24.70;18.50;;;;;;;6.65;54.30;97681.05;106953;1276;25412;-78
2023/04/29 00:24:03;;;;;;;22.60;18.20;;;;;;;6.69;54.05;97679.19;106910;1276;25396;-78
2023/04/29 00:26:31;;;;;;;18.90;16.80;;;;;;;6.72;54.38;97678.06;106932;1276;22595;-78
2023/04/29 00:28:59;;;;;;;21.50;18.30;;;;;;;6.76;54.40;97677.37;106636;1276;23158;-78
2023/04/29 00:31:27;;;;;;;20.70;18.30;;;;;;;6.81;54.81;97672.58;106610;1276;22528;-78
2023/04/29 00:33:56;;;;;;;22.00;18.10;;;;;;;6.86;55.20;97672.27;106631;1276;22800;-78
2023/04/29 00:36:25;;;;;;;19.30;17.10;;;;;;;6.91;55.41;97673.73;106919;1276;22630;-77
2023/04/29 00:38:53;;;;;;;19.50;17.30;;;;;;;6.98;55.14;97674.91;106982;1276;22542;-77
2023/04/29 00:41:21;;;;;;;20.40;17.80;;;;;;;7.03;54.85;97672.89;106980;1276;22661;-78
2023/04/29 00:43:49;;;;;;;19.00;17.00;;;;;;;7.04;54.99;97672.92;106904;1274;22552;-79
2023/04/29 00:46:17;;;;;;;19.20;17.00;;;;;;;7.06;55.21;97678.27;106897;1276;22574;-77
2023/04/29 00:48:45;;;;;;;19.80;17.80;;;;;;;7.07;55.27;97670.71;106484;1276;22789;-78
2023/04/29 00:51:16;;;;;;;18.80;17.00;;;;;;;7.10;55.27;97671.16;106825;1276;22728;-76
2023/04/29 00:53:44;;;;;;;20.00;17.90;;;;;;;7.14;55.96;97671.66;106827;1276;25810;-77
2023/04/29 00:56:16;;;;;;;21.60;17.20;;;;;;;7.19;55.96;97670.48;106612;1276;24270;-76
2023/04/29 00:58:49;;;;;;;20.90;18.60;;;;;;;7.23;55.84;97670.83;106708;1276;22537;-77
2023/04/29 01:01:18;;;;;;;19.80;17.70;;;;;;;7.25;55.73;97673.44;106767;1276;22609;-77
2023/04/29 01:03:47;;;;;;;23.40;20.90;;;;;;;7.25;55.89;97670.23;106792;1276;22631;-76
2023/04/29 01:06:52;;;;;;;25.40;22.40;;;;;;;7.27;56.10;97664.35;106583;1276;24324;-76
2023/04/29 01:09:50;;;;;;;24.40;20.30;;;;;;;7.32;56.21;97662.81;106525;1276;25497;-76
2023/04/29 01:12:48;;;;;;;20.70;18.40;;;;;;;7.35;56.07;97660.59;106760;1276;22528;-76
2023/04/29 01:15:22;;;;;;;24.40;21.80;;;;;;;7.36;55.81;97660.85;106580;1276;22624;-77
2023/04/29 01:18:14;;;;;;;23.00;20.10;;;;;;;7.37;55.93;97661.42;106480;1276;22620;-77
2023/04/29 01:20:43;;;;;;;19.30;17.20;;;;;;;7.38;56.80;97660.71;106638;1276;25338;-77
2023/04/29 01:23:11;;;;;;;22.30;18.20;;;;;;;7.39;57.39;97656.96;106883;1276;22543;-77
2023/04/29 01:25:41;;;;;;;21.80;19.40;;;;;;;7.43;57.50;97656.48;106997;1276;22519;-77
2023/04/29 01:28:53;;;;;;;21.30;18.30;;;;;;;7.50;57.43;97656.14;106929;1276;24372;-77
2023/04/29 01:31:37;;;;;;;20.50;16.10;;;;;;;7.62;57.43;97657.41;106893;1276;22524;-77
2023/04/29 01:34:33;;;;;;;23.70;21.30;;;;;;;7.71;57.50;97653.98;106984;1276;25310;-75
2023/04/29 01:37:09;;;;;;;21.40;18.20;;;;;;;7.79;57.13;97653.31;106663;1276;22518;-76
2023/04/29 01:40:21;;;;;;;20.50;15.50;;;;;;;7.83;57.27;97655.89;106802;1276;22528;-76
2023/04/29 01:43:11;;;;;;;17.20;15.40;;;;;;;7.86;57.09;97654.67;106713;1276;25252;-76
2023/04/29 01:45:43;;;;;;;18.80;16.90;;;;;;;7.86;57.45;97652.31;106767;1276;22660;-76
2023/04/29 01:48:13;;;;;;;19.20;16.00;;;;;;;7.87;57.27;97651.70;106590;1276;22656;-77
2023/04/29 01:50:42;;;;;;;17.60;15.70;;;;;;;7.89;57.46;97650.67;106990;1276;25450;-76
2023/04/29 01:53:14;;;;;;;18.40;15.20;;;;;;;7.91;57.61;97648.44;106459;1276;22651;-76
2023/04/29 01:55:43;;;;;;;19.80;16.60;;;;;;;7.94;57.63;97647.43;106639;1276;24382;-76
2023/04/29 01:58:24;;;;;;;20.30;15.70;;;;;;;7.96;57.83;97649.27;106718;1276;22534;-77
2023/04/29 02:01:06;;;;;;;16.30;14.70;;;;;;;8.00;57.91;97647.09;106705;1276;22630;-76
2023/04/29 02:03:35;;;;;;;18.70;15.50;;;;;;;8.02;57.95;97647.02;106748;1276;25393;-76
2023/04/29 02:06:05;;;;;;;16.70;14.10;;;;;;;8.03;57.85;97644.55;106813;1276;22510;-76
2023/04/29 02:08:36;;;;;;;21.50;17.90;;;;;;;8.03;57.92;97646.36;106461;1276;22579;-76
2023/04/29 02:11:04;;;;;;;19.30;17.20;;;;;;;8.02;57.90;97645.19;106725;1276;24384;-77
2023/04/29 02:13:39;;;;;;;17.50;15.70;;;;;;;8.03;58.04;97648.13;106760;1276;22634;-76
2023/04/29 02:16:13;;;;;;;18.00;16.10;;;;;;;8.01;58.47;97646.59;106517;1276;23009;-77
2023/04/29 02:18:50;;;;;;;16.80;15.00;;;;;;;7.99;58.85;97644.85;106725;1276;22545;-76
2023/04/29 02:21:18;;;;;;;18.90;16.60;;;;;;;8.00;58.46;97642.38;106609;1276;22774;-76
2023/04/29 02:23:46;;;;;;;20.40;18.40;;;;;;;7.99;58.90;97638.63;106733;1276;25383;-76
2023/04/29 02:26:14;;;;;;;21.60;18.80;;;;;;;7.95;58.82;97641.04;106814;1276;22514;-77
2023/04/29 02:28:43;;;;;;;20.60;18.40;;;;;;;7.93;59.23;97640.25;106735;1276;23487;-77
2023/04/29 02:31:11;;;;;;;19.50;16.30;;;;;;;7.93;59.22;97640.79;106469;1276;24246;-76
2023/04/29 02:33:40;;;;;;;21.20;17.90;;;;;;;7.93;59.45;97639.08;106457;1276;25408;-76
2023/04/29 02:36:09;;;;;;;19.80;15.50;;;;;;;7.98;59.38;97633.05;106891;1276;24273;-77
2023/04/29 02:38:37;;;;;;;20.60;16.90;;;;;;;8.05;59.71;97627.28;106720;1276;22504;-77
2023/04/29 02:41:05;;;;;;;18.80;16.70;;;;;;;8.10;59.88;97626.61;106770;1276;22640;-75
2023/04/29 02:43:33;;;;;;;20.50;18.40;;;;;;;8.14;60.23;97625.88;106739;1270;22547;-75
2023/04/29 02:46:01;;;;;;;22.10;19.50;;;;;;;8.18;60.21;97623.46;106647;1276;22742;-76
2023/04/29 02:48:29;;;;;;;19.40;17.50;;;;;;;8.18;60.10;97621.64;106718;1276;24317;-76
2023/04/29 02:50:57;;;;;;;23.10;20.70;;;;;;;8.17;60.20;97623.63;106555;1276;25393;-76
2023/04/29 02:53:25;;;;;;;24.30;21.60;;;;;;;8.14;60.59;97622.88;106728;1276;22640;-76
2023/04/29 02:55:54;;;;;;;20.10;18.10;;;;;;;8.11;60.59;97623.60;106728;1254;24055;-75
2023/04/29 02:58:22;;;;;;;22.10;16.50;;;;;;;8.10;60.53;97625.17;106838;1276;22535;-76
2023/04/29 03:00:50;;;;;;;19.10;17.10;;;;;;;8.11;60.54;97626.89;106475;1276;23184;-75
2023/04/29 03:03:18;;;;;;;18.10;16.20;;;;;;;8.11;60.68;97627.63;106592;1276;22615;-75
2023/04/29 03:05:47;;;;;;;19.80;17.70;;;;;;;8.12;60.65;97627.08;106656;1276;22837;-75
2023/04/29 03:08:15;;;;;;;19.20;17.30;;;;;;;8.11;60.57;97622.38;106632;1276;24483;-75
2023/04/29 03:10:43;;;;;;;19.00;17.10;;;;;;;8.09;60.81;97622.73;106738;1276;25086;-75
2023/04/29 03:13:11;;;;;;;20.60;17.70;;;;;;;8.09;61.06;97619.94;106649;1276;22791;-75
2023/04/29 03:15:39;;;;;;;24.90;17.90;;;;;;;8.07;60.82;97616.95;106876;1276;22528;-75
2023/04/29 03:18:08;;;;;;;17.70;15.90;;;;;;;8.06;61.10;97616.96;106636;1276;24241;-78
2023/04/29 03:20:36;;;;;;;18.30;16.30;;;;;;;8.06;60.98;97613.10;106811;1276;22606;-76
2023/04/29 03:23:04;;;;;;;20.10;17.60;;;;;;;8.08;61.19;97611.62;106858;1276;22657;-76
2023/04/29 03:25:32;;;;;;;19.00;15.40;;;;;;;8.12;61.83;97613.77;106904;1276;24078;-76
2023/04/29 03:28:01;;;;;;;18.70;15.70;;;;;;;8.15;61.82;97607.50;106835;1276;22527;-77
2023/04/29 03:30:30;;;;;;;24.10;17.10;;;;;;;8.20;61.79;97616.55;106784;1276;22532;-75
2023/04/29 03:32:58;;;;;;;19.00;16.30;;;;;;;8.24;61.73;97619.02;106499;1276;25239;-76
2023/04/29 03:35:27;;;;;;;20.50;15.90;;;;;;;8.29;61.72;97617.67;106905;1276;22652;-76
2023/04/29 03:38:30;;;;;;;20.50;15.90;;;;;;;8.32;61.47;97618.27;106683;1276;22638;-75
2023/04/29 03:40:58;;;;;;;21.30;17.60;;;;;;;8.35;61.50;97616.40;106628;1276;24089;-76
2023/04/29 03:43:26;;;;;;;17.30;15.50;;;;;;;8.23;61.61;97590.35;106946;1276;25401;-76
2023/04/29 03:45:55;;;;;;;18.70;15.70;;;;;;;8.42;61.86;97614.67;106631;1276;23305;-78
2023/04/29 03:48:24;;;;;;;18.50;16.30;;;;;;;8.45;61.70;97613.11;106961;1276;22645;-77
2023/04/29 03:50:53;;;;;;;16.70;14.00;;;;;;;8.48;62.17;97615.71;106643;1276;24749;-76
2023/04/29 03:53:21;;;;;;;18.30;15.10;;;;;;;8.51;61.81;97616.69;106632;1253;24277;-78
2023/04/29 03:55:50;;;;;;;16.10;14.50;;;;;;;8.53;62.24;97617.19;106781;1276;25468;-76
2023/04/29 03:58:18;;;;;;;18.00;15.70;;;;;;;8.54;61.69;97619.64;106785;1276;22640;-76
2023/04/29 04:00:46;;;;;;;19.50;15.90;;;;;;;8.55;61.98;97620.15;106685;1276;22532;-76
2023/04/29 04:03:17;;;;;;;17.40;15.60;;;;;;;8.58;62.34;97620.48;106936;1276;24192;-75
2023/04/29 04:05:46;;;;;;;23.70;17.20;;;;;;;8.62;62.61;97620.11;106628;1276;22518;-77
2023/04/29 04:08:15;;;;;;;17.90;16.10;;;;;;;8.68;63.04;97622.60;106952;1276;25268;-77
2023/04/29 04:11:01;;;;;;;17.40;15.20;;;;;;;8.72;63.17;97626.14;106905;1276;22520;-77
2023/04/29 04:13:36;;;;;;;17.20;14.70;;;;;;;8.73;63.63;97623.05;106915;1276;22527;-77
2023/04/29 04:16:04;;;;;;;18.50;16.50;;;;;;;8.72;63.13;97621.69;106970;1276;25478;-76
2023/04/29 04:18:32;;;;;;;18.10;15.70;;;;;;;8.72;63.46;97620.22;106470;1276;22525;-75
2023/04/29 04:21:05;;;;;;;18.50;15.70;;;;;;;8.71;63.36;97616.48;106754;1276;22648;-75
2023/04/29 04:23:34;;;;;;;19.80;16.70;;;;;;;8.69;63.34;97616.39;106580;1276;23427;-76
2023/04/29 04:26:02;;;;;;;21.70;16.50;;;;;;;8.67;63.57;97612.77;107013;1276;22520;-76
2023/04/29 04:28:59;;;;;;;18.20;15.90;;;;;;;8.63;63.39;97610.46;106921;1276;25529;-76
2023/04/29 04:31:35;;;;;;;22.20;17.10;;;;;;;8.61;63.85;97608.89;106864;1276;22523;-77
2023/04/29 04:34:03;;;;;;;18.60;15.90;;;;;;;8.58;64.70;97609.46;106964;1276;25856;-77
2023/04/29 04:36:32;;;;;;;19.70;14.90;;;;;;;8.58;64.94;97610.34;107060;1276;22746;-77
2023/04/29 04:39:00;;;;;;;16.10;14.30;;;;;;;8.60;65.26;97610.10;106698;1276;25498;-77
2023/04/29 04:41:30;;;;;;;19.80;14.60;;;;;;;8.63;65.99;97613.11;106803;1276;24390;-77
2023/04/29 04:43:59;;;;;;;17.60;15.90;;;;;;;8.63;65.20;97610.14;106608;1276;22577;-75
2023/04/29 04:46:53;;;;;;;16.90;14.90;;;;;;;8.64;65.17;97610.61;106668;1276;22535;-76
2023/04/29 04:49:36;;;;;;;16.20;13.70;;;;;;;8.64;65.29;97616.79;106756;1276;22730;-77
2023/04/29 04:52:04;;;;;;;20.20;14.90;;;;;;;8.64;64.98;97615.39;106630;1258;22575;-75
2023/04/29 04:54:32;;;;;;;15.00;13.50;;;;;;;8.64;65.26;97615.50;107058;1270;22635;-76
2023/04/29 04:57:06;;;;;;;17.30;15.00;;;;;;;8.67;65.33;97610.26;106950;1276;22484;-77
2023/04/29 04:59:34;;;;;;;15.10;13.50;;;;;;;8.68;65.13;97610.02;106980;1276;24139;-76
2023/04/29 05:02:03;;;;;;;15.30;13.50;;;;;;;8.72;65.22;97608.95;106576;1276;24059;-77
2023/04/29 05:04:32;;;;;;;15.10;12.70;;;;;;;8.77;66.27;97609.88;106701;1276;25357;-76
2023/04/29 05:07:00;;;;;;;15.30;13.10;;;;;;;8.82;66.39;97608.34;106533;1276;24240;-77
2023/04/29 05:09:31;;;;;;;16.50;13.50;;;;;;;8.86;66.54;97611.98;106795;1276;23277;-74
2023/04/29 05:12:00;;;;;;;18.40;14.90;;;;;;;8.89;66.30;97609.25;106820;1276;22660;-75
2023/04/29 05:14:31;;;;;;;16.00;14.30;;;;;;;8.97;66.98;97608.42;106493;1276;24368;-76
2023/04/29 05:16:59;;;;;;;15.50;14.10;;;;;;;9.08;67.48;97607.91;106620;1276;25325;-75
2023/04/29 05:19:27;;;;;;;16.70;12.90;;;;;;;9.22;68.05;97607.17;106785;1276;22528;-78
2023/04/29 05:21:55;;;;;;;14.80;13.20;;;;;;;9.37;68.68;97607.02;106780;1276;23036;-78
2023/04/29 05:24:25;;;;;;;15.50;13.30;;;;;;;9.59;68.97;97611.48;106465;1276;25467;-80
2023/04/29 05:26:53;;;;;;;15.80;13.70;;;;;;;9.83;68.74;97613.21;106614;1272;24259;-76
2023/04/29 05:29:21;;;;;;;19.70;17.80;;;;;;;9.99;68.89;97616.54;106650;1276;24342;-76
2023/04/29 05:31:52;;;;;;;16.50;14.90;;;;;;;10.03;67.93;97617.27;106962;1276;23291;-74
2023/04/29 05:34:20;;;;;;;19.10;16.70;;;;;;;10.03;67.91;97617.98;106764;1276;22518;-74
2023/04/29 05:36:48;;;;;;;16.80;15.10;;;;;;;10.06;67.66;97614.63;106595;1276;22525;-78
2023/04/29 05:39:16;;;;;;;19.30;15.90;;;;;;;10.02;67.50;97614.17;106735;1276;26643;-78
2023/04/29 05:41:46;;;;;;;15.40;13.90;;;;;;;9.96;67.53;97616.54;106695;1272;22574;-77
2023/04/29 05:44:28;;;;;;;17.20;15.20;;;;;;;9.85;67.88;97619.04;106704;1278;22636;-78
2023/04/29 05:46:55;;;;;;;16.00;14.20;;;;;;;9.76;68.09;97621.21;106709;1278;24703;-76
2023/04/29 05:49:23;;;;;;;16.90;15.20;;;;;;;9.65;68.72;97621.15;106440;1278;164465;-76
2023/04/29 05:51:51;;;;;;;16.30;14.50;;;;;;;9.58;69.09;97621.79;106448;1278;22653;-76
2023/04/29 05:54:21;;;;;;;16.80;13.30;;;;;;;9.53;69.34;97625.74;106571;1278;25336;-77
2023/04/29 05:56:49;;;;;;;16.90;14.40;;;;;;;9.46;69.54;97619.10;106565;1278;25658;-78
2023/04/29 05:59:17;;;;;;;17.40;15.00;;;;;;;9.48;69.97;97624.66;106563;1278;22550;-76
2023/04/29 06:01:50;;;;;;;16.10;14.50;;;;;;;9.45;69.76;97626.22;106513;1278;22537;-77
2023/04/29 06:04:17;;;;;;;16.40;14.70;;;;;;;9.37;70.07;97621.70;106555;1278;24350;-79
2023/04/29 06:07:07;;;;;;;17.40;15.60;;;;;;;9.34;69.98;97623.40;106781;1278;25479;-77
2023/04/29 06:09:57;;;;;;;16.80;15.10;;;;;;;9.31;70.34;97624.05;106588;1278;24954;-80
2023/04/29 06:12:27;;;;;;;19.20;16.60;;;;;;;9.28;70.90;97629.42;106690;1278;22590;-77
2023/04/29 06:14:55;;;;;;;18.90;17.10;;;;;;;9.27;71.25;97627.58;106469;1278;25382;-76
2023/04/29 06:17:23;;;;;;;19.20;16.80;;;;;;;9.23;70.58;97628.88;106488;1278;22527;-77
2023/04/29 06:19:51;;;;;;;19.20;17.40;;;;;;;9.21;71.16;97627.19;106604;1278;22553;-77
2023/04/29 06:22:21;;;;;;;20.00;17.70;;;;;;;9.18;71.20;97624.39;106675;1278;22697;-78
2023/04/29 06:24:51;;;;;;;22.00;19.80;;;;;;;9.16;70.89;97624.59;106692;1278;22729;-79
2023/04/29 06:27:35;;;;;;;19.90;18.10;;;;;;;9.19;71.15;97619.38;106576;1278;23897;-77
2023/04/29 06:30:03;;;;;;;18.20;16.30;;;;;;;9.23;71.07;97620.70;106514;1278;22532;-78
2023/04/29 06:32:32;;;;;;;17.70;16.00;;;;;;;9.28;72.20;97616.05;106556;1278;22551;-76
2023/04/29 06:35:01;;;;;;;16.80;15.10;;;;;;;9.29;71.90;97615.02;106556;1278;24406;-77
2023/04/29 06:37:46;;;;;;;17.20;15.50;;;;;;;9.31;71.64;97614.80;106379;1278;24242;-76
2023/04/29 06:40:40;;;;;;;18.30;16.30;;;;;;;9.35;72.28;97612.58;106238;1278;22644;-78
2023/04/29 06:43:32;;;;;;;16.90;15.10;;;;;;;9.36;72.78;97611.94;106521;1277;22773;-76
2023/04/29 06:46:18;;;;;;;17.60;15.80;;;;;;;9.38;72.86;97609.56;107122;1270;25403;-77
2023/04/29 06:49:02;;;;;;;16.80;15.00;;;;;;;9.41;73.36;97612.10;106610;1277;22611;-77
2023/04/29 06:51:32;;;;;;;18.30;16.50;;;;;;;9.43;73.17;97617.38;106686;1265;22795;-79
2023/04/29 06:54:00;;;;;;;18.80;16.80;;;;;;;9.48;73.53;97618.89;106796;1277;23951;-78
2023/04/29 06:56:28;;;;;;;18.20;16.40;;;;;;;9.49;73.64;97619.14;106753;1277;22576;-76
2023/04/29 06:58:56;;;;;;;18.50;16.60;;;;;;;9.48;73.86;97620.63;106603;1277;22597;-76
2023/04/29 07:01:24;;;;;;;19.10;17.00;;;;;;;9.47;74.27;97617.95;106611;1277;24400;-77
2023/04/29 07:03:52;;;;;;;20.10;15.90;;;;;;;9.46;74.45;97619.31;106578;1277;22532;-75
2023/04/29 07:06:20;;;;;;;19.10;17.10;;;;;;;9.46;74.59;97619.09;106621;1277;22524;-76
2023/04/29 07:08:49;;;;;;;18.80;16.80;;;;;;;9.50;74.71;97616.29;106755;1277;22636;-77
2023/04/29 07:11:17;;;;;;;16.90;15.20;;;;;;;9.56;74.72;97618.38;106646;1277;22550;-76
2023/04/29 07:13:46;;;;;;;17.70;15.90;;;;;;;9.60;75.32;97617.33;106619;1267;24189;-77
2023/04/29 07:16:16;;;;;;;17.80;15.90;;;;;;;9.62;75.22;97618.20;106635;1277;22655;-77
2023/04/29 07:18:45;;;;;;;18.60;16.30;;;;;;;9.64;75.33;97618.00;106637;1277;22535;-77
2023/04/29 07:21:13;;;;;;;19.70;15.90;;;;;;;9.67;75.66;97623.27;106507;1277;25346;-78
2023/04/29 07:23:42;;;;;;;17.00;15.30;;;;;;;9.69;75.58;97618.55;106753;1277;22806;-76
2023/04/29 07:26:15;;;;;;;17.60;15.90;;;;;;;9.74;75.93;97620.62;106807;1277;25471;-79
2023/04/29 07:28:45;;;;;;;19.20;17.20;;;;;;;9.80;75.74;97623.88;106707;1277;22624;-79
2023/04/29 07:31:13;;;;;;;18.70;16.30;;;;;;;9.86;75.45;97624.77;106493;1277;25523;-78
2023/04/29 07:33:44;;;;;;;19.30;17.50;;;;;;;9.92;75.59;97621.91;106536;1277;25430;-75
2023/04/29 07:36:12;;;;;;;21.20;19.20;;;;;;;9.95;75.76;97622.27;106529;1277;22612;-75
2023/04/29 07:38:40;;;;;;;21.40;19.30;;;;;;;9.97;75.48;97624.50;106598;1277;22801;-78
2023/04/29 07:41:08;;;;;;;19.60;17.70;;;;;;;9.99;75.50;97626.86;106573;1268;24268;-75
2023/04/29 07:43:36;;;;;;;20.50;18.50;;;;;;;10.03;75.47;97627.02;106655;1276;22517;-76
2023/04/29 07:46:06;;;;;;;21.00;16.70;;;;;;;10.09;75.40;97629.52;106567;1276;24134;-78
2023/04/29 07:48:38;;;;;;;18.10;16.30;;;;;;;10.14;75.90;97626.34;106771;1276;25393;-76
2023/04/29 07:51:12;;;;;;;17.80;16.00;;;;;;;10.15;75.69;97623.04;106761;1276;22539;-76
2023/04/29 07:53:42;;;;;;;18.60;16.60;;;;;;;10.16;75.60;97627.45;107140;1276;22516;-75
2023/04/29 07:56:10;;;;;;;21.70;17.80;;;;;;;10.18;75.63;97627.73;106759;1276;25458;-75
2023/04/29 07:58:39;;;;;;;18.80;17.00;;;;;;;10.23;76.04;97634.06;106791;1276;24441;-76
2023/04/29 08:01:09;;;;;;;17.30;15.70;;;;;;;10.28;76.22;97636.58;106750;1276;24189;-75
2023/04/29 08:03:37;;;;;;;19.40;16.00;;;;;;;10.33;75.72;97639.58;106609;1276;22573;-76
2023/04/29 08:06:09;;;;;;;17.80;16.00;;;;;;;10.38;76.80;97642.19;106570;1276;22561;-76
2023/04/29 08:08:37;;;;;;;15.90;14.10;;;;;;;10.38;76.24;97641.36;106838;1276;25332;-76
2023/04/29 08:11:05;;;;;;;15.30;13.70;;;;;;;10.39;76.64;97643.94;106588;1276;22540;-76
2023/04/29 08:13:36;;;;;;;18.20;16.20;;;;;;;10.38;76.40;97638.73;106976;1276;22584;-75
2023/04/29 08:16:05;;;;;;;18.30;16.60;;;;;;;10.39;76.56;97637.03;106641;1276;22599;-77
2023/04/29 08:18:35;;;;;;;18.60;16.80;;;;;;;10.38;76.73;97641.52;106974;1266;22580;-75
2023/04/29 08:21:04;;;;;;;18.40;14.90;;;;;;;10.39;76.60;97636.60;106995;1275;25489;-76
2023/04/29 08:23:32;;;;;;;16.00;13.40;;;;;;;10.45;76.69;97637.59;106937;1276;22525;-76
2023/04/29 08:26:00;;;;;;;18.30;15.10;;;;;;;10.52;76.90;97636.80;106783;1276;22640;-78
2023/04/29 08:28:28;;;;;;;18.10;15.80;;;;;;;10.58;77.29;97640.27;106997;1276;24257;-75
2023/04/29 08:30:56;;;;;;;18.40;16.60;;;;;;;10.61;77.69;97638.10;106591;1276;22638;-79
2023/04/29 08:33:24;;;;;;;20.60;18.50;;;;;;;10.60;77.41;97640.44;107019;1276;22566;-76
2023/04/29 08:36:02;;;;;;;20.00;18.00;;;;;;;10.65;77.47;97643.48;106940;1276;22555;-76
2023/04/29 08:38:30;;;;;;;21.40;19.30;;;;;;;10.70;77.48;97643.17;106778;1276;22580;-77
2023/04/29 08:41:00;;;;;;;21.60;19.30;;;;;;;10.77;77.31;97640.09;106894;1276;22649;-75
2023/04/29 08:43:28;;;;;;;21.50;19.20;;;;;;;10.88;77.60;97640.69;106891;1276;25342;-75
2023/04/29 08:45:57;;;;;;;25.00;22.70;;;;;;;10.95;77.77;97640.91;106662;1276;22523;-75
2023/04/29 08:48:27;;;;;;;29.00;26.20;;;;;;;10.96;77.80;97642.19;106816;1276;22560;-75
2023/04/29 08:50:57;;;;;;;30.20;27.10;;;;;;;10.97;77.60;97638.55;106808;1276;22527;-76
2023/04/29 08:53:25;;;;;;;26.50;24.00;;;;;;;11.01;77.47;97632.30;106915;1276;24249;-76
2023/04/29 08:55:55;;;;;;;21.80;19.60;;;;;;;11.08;77.66;97633.42;106938;1276;24367;-76
2023/04/29 08:58:25;;;;;;;21.30;19.20;;;;;;;11.16;77.55;97630.20;106965;1276;22581;-76
2023/04/29 09:00:53;;;;;;;20.60;18.70;;;;;;;11.26;77.66;97629.08;106899;1276;22659;-76
2023/04/29 09:03:33;;;;;;;20.80;18.80;;;;;;;11.34;78.25;97630.04;106918;1276;22623;-76
2023/04/29 09:06:03;;;;;;;20.50;18.40;;;;;;;11.41;78.11;97629.11;107132;1276;22524;-80
2023/04/29 09:08:32;;;;;;;23.80;21.60;;;;;;;11.48;78.25;97628.30;107029;1276;25380;-80
2023/04/29 09:11:00;;;;;;;23.10;20.80;;;;;;;11.55;78.22;97622.86;106978;1276;22814;-76
2023/04/29 09:13:30;;;;;;;21.20;18.40;;;;;;;11.64;78.28;97627.48;106802;1276;22643;-75
2023/04/29 09:15:58;;;;;;;21.20;17.60;;;;;;;11.74;78.13;97627.52;106801;1276;25386;-76
2023/04/29 09:18:46;;;;;;;19.10;17.10;;;;;;;11.88;78.18;97627.33;106494;1276;22675;-79
2023/04/29 09:21:26;;;;;;;19.60;16.80;;;;;;;12.00;78.02;97624.75;106771;1276;23297;-76
2023/04/29 09:23:56;;;;;;;17.40;15.60;;;;;;;12.10;78.04;97622.04;106753;1276;22534;-76
2023/04/29 09:26:25;;;;;;;16.90;15.20;;;;;;;12.18;78.22;97618.94;106889;1276;25355;-75
2023/04/29 09:29:12;;;;;;;16.30;14.50;;;;;;;12.29;78.23;97618.99;106764;1276;25394;-75
2023/04/29 09:31:41;;;;;;;16.20;14.70;;;;;;;12.44;78.14;97616.48;106756;1276;25532;-75
2023/04/29 09:34:13;;;;;;;15.80;13.10;;;;;;;12.56;77.89;97614.55;106752;1276;22531;-75
2023/04/29 09:36:46;;;;;;;14.20;12.00;;;;;;;12.72;77.60;97615.02;106751;1276;24227;-76
2023/04/29 09:39:16;;;;;;;20.50;18.40;;;;;;;12.96;77.75;97612.89;106791;1276;22640;-75
2023/04/29 09:41:53;;;;;;;18.60;13.40;;;;;;;13.25;77.56;97609.40;106842;1276;22802;-75
2023/04/29 09:44:26;;;;;;;13.60;11.90;;;;;;;13.52;77.15;97607.83;106744;1276;24262;-76
2023/04/29 09:47:02;;;;;;;15.30;12.20;;;;;;;13.62;76.65;97603.54;106750;1276;25468;-76
2023/04/29 09:49:39;;;;;;;13.40;10.30;;;;;;;13.71;76.10;97605.17;106782;1276;22582;-75
2023/04/29 09:52:12;;;;;;;14.40;11.70;;;;;;;13.75;75.52;97607.98;106971;1276;22548;-76
2023/04/29 09:54:42;;;;;;;11.60;9.60;;;;;;;13.82;75.64;97606.38;106976;1276;24375;-78
2023/04/29 09:57:11;;;;;;;12.60;9.90;;;;;;;13.88;74.63;97607.63;106947;1275;25390;-76
2023/04/29 09:59:40;;;;;;;13.20;10.20;;;;;;;13.92;74.37;97608.42;106740;1276;22781;-77
2023/04/29 10:02:16;;;;;;;12.30;10.30;;;;;;;14.07;74.47;97608.08;106963;1276;23185;-76
2023/04/29 10:04:47;;;;;;;10.80;9.20;;;;;;;14.25;73.72;97601.40;107073;1276;25479;-76
2023/04/29 10:07:16;;;;;;;16.20;12.70;;;;;;;14.40;73.35;97600.17;107074;1276;22727;-76
2023/04/29 10:09:46;;;;;;;13.30;11.80;;;;;;;14.57;72.78;97599.65;107001;1276;26509;-75
2023/04/29 10:12:17;;;;;;;13.60;10.10;;;;;;;14.76;72.73;97594.15;106833;1276;25370;-77
2023/04/29 10:15:05;;;;;;;11.70;10.20;;;;;;;14.96;72.47;97589.98;106837;1276;24180;-76
2023/04/29 10:17:46;;;;;;;11.30;10.00;;;;;;;15.12;71.78;97591.59;106938;1276;24445;-76
2023/04/29 10:20:23;;;;;;;12.80;10.60;;;;;;;15.21;70.85;97589.11;106915;1276;22781;-77
2023/04/29 10:22:55;;;;;;;14.00;10.90;;;;;;;15.27;70.76;97588.70;106740;1276;22522;-76
2023/04/29 10:25:26;;;;;;;17.20;11.00;;;;;;;15.42;70.41;97585.39;106914;1276;22813;-75
2023/04/29 10:27:55;;;;;;;12.70;9.50;;;;;;;15.65;70.28;97583.58;106973;1276;22748;-76
2023/04/29 10:30:23;;;;;;;14.60;9.10;;;;;;;15.89;70.16;97584.59;106626;1276;22852;-75
2023/04/29 10:32:51;;;;;;;12.00;9.80;;;;;;;16.10;69.61;97585.44;106737;1276;22624;-75
2023/04/29 10:35:23;;;;;;;10.30;8.20;;;;;;;16.22;68.75;97585.65;106747;1276;22521;-75
2023/04/29 10:37:52;;;;;;;13.20;8.90;;;;;;;16.30;68.77;97586.73;106774;1276;24414;-75
2023/04/29 10:40:45;;;;;;;13.70;8.40;;;;;;;16.39;68.47;97586.84;106761;1276;22636;-75
2023/04/29 10:43:14;;;;;;;9.90;8.20;;;;;;;16.31;67.33;97591.04;106809;1276;25395;-75
2023/04/29 10:45:42;;;;;;;12.30;9.40;;;;;;;16.11;67.51;97585.63;106724;1276;24238;-75
2023/04/29 10:48:12;;;;;;;12.30;9.90;;;;;;;15.94;67.01;97585.52;106739;1276;25393;-75
2023/04/29 10:50:46;;;;;;;12.70;9.30;;;;;;;15.82;67.24;97587.17;106796;1276;22554;-75
2023/04/29 10:53:15;;;;;;;13.00;11.10;;;;;;;15.74;66.99;97589.17;106798;1276;22535;-75
2023/04/29 10:55:47;;;;;;;13.10;10.30;;;;;;;15.74;67.34;97588.99;106805;1276;24075;-75
2023/04/29 10:58:39;;;;;;;11.60;9.30;;;;;;;15.74;67.17;97582.02;106901;1276;24108;-75
2023/04/29 11:01:15;;;;;;;12.70;9.60;;;;;;;15.80;67.14;97580.57;106775;1276;23286;-75
2023/04/29 11:03:59;;;;;;;12.90;9.50;;;;;;;15.85;66.32;97579.64;106747;1276;22531;-75
2023/04/29 11:06:33;;;;;;;;;;;;;;;15.89;65.92;97573.09;106802;1276;22502;-76
2023/04/29 11:09:24;;;;;;;13.00;9.40;;;;;;;15.88;65.48;97577.04;106739;1276;22796;-76
2023/04/29 11:12:02;;;;;;;9.80;8.80;;;;;;;15.78;65.09;97574.70;106621;1276;25459;-76
2023/04/29 11:14:48;;;;;;;11.80;10.10;;;;;;;15.76;65.37;97573.70;106805;1276;25336;-76
2023/04/29 11:17:22;;;;;;;13.40;10.10;;;;;;;15.73;64.79;97572.11;106740;1276;25236;-76
2023/04/29 11:19:51;;;;;;;14.50;11.40;;;;;;;15.63;64.27;97569.00;106499;1276;22648;-76
2023/04/29 11:22:25;;;;;;;21.20;15.80;;;;;;;15.53;63.75;97573.15;106956;1276;22913;-76
2023/04/29 11:24:59;;;;;;;15.60;10.20;;;;;;;15.40;63.81;97573.21;106965;1276;24224;-76
2023/04/29 11:27:34;;;;;;;11.60;9.80;;;;;;;15.29;63.49;97569.54;106880;1276;23316;-76
2023/04/29 11:30:06;;;;;;;13.80;10.30;;;;;;;15.24;63.61;97569.91;106795;1276;22640;-76
2023/04/29 11:32:40;;;;;;;10.80;9.70;;;;;;;15.18;63.73;97572.88;106803;1276;22781;-76
2023/04/29 11:35:13;;;;;;;12.90;10.00;;;;;;;15.19;63.82;97576.56;106969;1276;25357;-76
2023/04/29 11:37:43;;;;;;;13.20;10.10;;;;;;;15.20;63.43;97578.16;106962;1253;22534;-75